sensor_id;sensor_type;location;lat;lon;timestamp;P1;durP1;ratioP1;P2;durP2;ratioP2
52854;SDS011;38719;51.418;7.286;2023-06-04T00:02:25;4.40;;;3.38;;
52854;SDS011;38719;51.418;7.286;2023-06-04T00:04:53;6.35;;;3.50;;
52854;SDS011;38719;51.418;7.286;2023-06-04T00:07:21;5.28;;;3.60;;
52854;SDS011;38719;51.418;7.286;2023-06-04T00:09:48;6.88;;;3.60;;
52854;SDS011;38719;51.418;7.286;2023-06-04T00:12:17;6.25;;;3.70;;
52854;SDS011;38719;51.418;7.286;2023-06-04T00:14:45;6.80;;;3.70;;
52854;SDS011;38719;51.418;7.286;2023-06-04T00:17:12;5.05;;;3.53;;
52854;SDS011;38719;51.418;7.286;2023-06-04T00:19:40;8.73;;;3.80;;
52854;SDS011;38719;51.418;7.286;2023-06-04T00:22:07;9.32;;;3.70;;
52854;SDS011;38719;51.418;7.286;2023-06-04T00:24:36;7.13;;;3.53;;
52854;SDS011;38719;51.418;7.286;2023-06-04T00:27:06;4.35;;;3.40;;
52854;SDS011;38719;51.418;7.286;2023-06-04T00:29:36;3.83;;;3.35;;
52854;SDS011;38719;51.418;7.286;2023-06-04T00:32:04;4.78;;;3.45;;
52854;SDS011;38719;51.418;7.286;2023-06-04T00:34:32;7.82;;;4.28;;
52854;SDS011;38719;51.418;7.286;2023-06-04T00:36:59;4.63;;;3.67;;
52854;SDS011;38719;51.418;7.286;2023-06-04T00:39:28;5.25;;;3.60;;
52854;SDS011;38719;51.418;7.286;2023-06-04T00:41:55;4.90;;;3.45;;
52854;SDS011;38719;51.418;7.286;2023-06-04T00:44:23;5.43;;;3.50;;
52854;SDS011;38719;51.418;7.286;2023-06-04T00:46:53;4.55;;;3.13;;
52854;SDS011;38719;51.418;7.286;2023-06-04T00:49:21;9.98;;;3.85;;
52854;SDS011;38719;51.418;7.286;2023-06-04T00:51:49;8.80;;;3.90;;
52854;SDS011;38719;51.418;7.286;2023-06-04T00:54:18;9.77;;;3.92;;
52854;SDS011;38719;51.418;7.286;2023-06-04T00:56:47;6.68;;;3.63;;
52854;SDS011;38719;51.418;7.286;2023-06-04T00:59:15;11.95;;;4.43;;
52854;SDS011;38719;51.418;7.286;2023-06-04T01:01:44;7.65;;;3.90;;
52854;SDS011;38719;51.418;7.286;2023-06-04T01:04:23;7.68;;;3.67;;
52854;SDS011;38719;51.418;7.286;2023-06-04T01:06:55;8.73;;;3.88;;
52854;SDS011;38719;51.418;7.286;2023-06-04T01:09:24;5.45;;;3.85;;
52854;SDS011;38719;51.418;7.286;2023-06-04T01:11:53;6.55;;;4.03;;
52854;SDS011;38719;51.418;7.286;2023-06-04T01:14:24;6.15;;;4.07;;
52854;SDS011;38719;51.418;7.286;2023-06-04T01:16:52;5.32;;;3.88;;
52854;SDS011;38719;51.418;7.286;2023-06-04T01:19:37;6.90;;;3.85;;
52854;SDS011;38719;51.418;7.286;2023-06-04T01:22:29;5.50;;;3.72;;
52854;SDS011;38719;51.418;7.286;2023-06-04T01:25:04;8.38;;;3.40;;
52854;SDS011;38719;51.418;7.286;2023-06-04T01:27:37;5.78;;;3.42;;
52854;SDS011;38719;51.418;7.286;2023-06-04T01:30:06;8.95;;;3.55;;
52854;SDS011;38719;51.418;7.286;2023-06-04T01:32:36;4.97;;;3.38;;
52854;SDS011;38719;51.418;7.286;2023-06-04T01:35:08;6.25;;;3.25;;
52854;SDS011;38719;51.418;7.286;2023-06-04T01:37:38;4.50;;;3.28;;
52854;SDS011;38719;51.418;7.286;2023-06-04T01:40:06;6.45;;;3.72;;
52854;SDS011;38719;51.418;7.286;2023-06-04T01:42:35;4.88;;;3.70;;
52854;SDS011;38719;51.418;7.286;2023-06-04T01:45:03;6.20;;;3.88;;
52854;SDS011;38719;51.418;7.286;2023-06-04T01:47:31;5.03;;;3.58;;
52854;SDS011;38719;51.418;7.286;2023-06-04T01:49:58;6.22;;;3.92;;
52854;SDS011;38719;51.418;7.286;2023-06-04T01:52:27;7.80;;;3.85;;
52854;SDS011;38719;51.418;7.286;2023-06-04T01:54:55;5.28;;;4.00;;
52854;SDS011;38719;51.418;7.286;2023-06-04T01:57:23;5.53;;;3.97;;
52854;SDS011;38719;51.418;7.286;2023-06-04T01:59:51;5.80;;;4.40;;
52854;SDS011;38719;51.418;7.286;2023-06-04T02:02:18;7.07;;;4.22;;
52854;SDS011;38719;51.418;7.286;2023-06-04T02:04:46;6.20;;;4.00;;
52854;SDS011;38719;51.418;7.286;2023-06-04T02:07:13;8.13;;;4.22;;
52854;SDS011;38719;51.418;7.286;2023-06-04T02:09:45;6.50;;;3.83;;
52854;SDS011;38719;51.418;7.286;2023-06-04T02:12:12;5.32;;;3.90;;
52854;SDS011;38719;51.418;7.286;2023-06-04T02:14:40;7.68;;;4.68;;
52854;SDS011;38719;51.418;7.286;2023-06-04T02:17:09;7.75;;;4.90;;
52854;SDS011;38719;51.418;7.286;2023-06-04T02:19:38;9.43;;;5.22;;
52854;SDS011;38719;51.418;7.286;2023-06-04T02:22:10;6.22;;;4.68;;
52854;SDS011;38719;51.418;7.286;2023-06-04T02:24:38;7.72;;;4.50;;
52854;SDS011;38719;51.418;7.286;2023-06-04T02:27:10;7.15;;;4.28;;
52854;SDS011;38719;51.418;7.286;2023-06-04T02:29:39;6.90;;;4.18;;
52854;SDS011;38719;51.418;7.286;2023-06-04T02:32:08;7.03;;;4.00;;
52854;SDS011;38719;51.418;7.286;2023-06-04T02:34:35;7.00;;;4.10;;
52854;SDS011;38719;51.418;7.286;2023-06-04T02:37:03;6.22;;;4.18;;
52854;SDS011;38719;51.418;7.286;2023-06-04T02:39:31;7.57;;;3.75;;
52854;SDS011;38719;51.418;7.286;2023-06-04T02:41:59;10.23;;;3.65;;
52854;SDS011;38719;51.418;7.286;2023-06-04T02:44:28;5.40;;;3.47;;
52854;SDS011;38719;51.418;7.286;2023-06-04T02:46:56;6.57;;;3.72;;
52854;SDS011;38719;51.418;7.286;2023-06-04T02:49:24;6.28;;;3.72;;
52854;SDS011;38719;51.418;7.286;2023-06-04T02:51:51;5.45;;;3.60;;
52854;SDS011;38719;51.418;7.286;2023-06-04T02:54:19;4.70;;;3.65;;
52854;SDS011;38719;51.418;7.286;2023-06-04T02:56:46;5.05;;;3.78;;
52854;SDS011;38719;51.418;7.286;2023-06-04T02:59:15;4.57;;;3.47;;
52854;SDS011;38719;51.418;7.286;2023-06-04T03:01:44;5.43;;;3.95;;
52854;SDS011;38719;51.418;7.286;2023-06-04T03:04:12;5.25;;;3.60;;
52854;SDS011;38719;51.418;7.286;2023-06-04T03:06:41;6.50;;;3.78;;
52854;SDS011;38719;51.418;7.286;2023-06-04T03:09:11;5.38;;;3.70;;
52854;SDS011;38719;51.418;7.286;2023-06-04T03:11:39;5.45;;;3.42;;
52854;SDS011;38719;51.418;7.286;2023-06-04T03:14:07;6.13;;;3.58;;
52854;SDS011;38719;51.418;7.286;2023-06-04T03:16:35;5.55;;;3.55;;
52854;SDS011;38719;51.418;7.286;2023-06-04T03:19:07;6.47;;;3.42;;
52854;SDS011;38719;51.418;7.286;2023-06-04T03:21:37;7.22;;;3.78;;
52854;SDS011;38719;51.418;7.286;2023-06-04T03:24:05;8.57;;;3.38;;
52854;SDS011;38719;51.418;7.286;2023-06-04T03:26:33;7.68;;;3.80;;
52854;SDS011;38719;51.418;7.286;2023-06-04T03:29:01;5.72;;;3.58;;
52854;SDS011;38719;51.418;7.286;2023-06-04T03:31:28;5.68;;;3.30;;
52854;SDS011;38719;51.418;7.286;2023-06-04T03:33:58;4.57;;;3.28;;
52854;SDS011;38719;51.418;7.286;2023-06-04T03:36:27;5.15;;;3.60;;
52854;SDS011;38719;51.418;7.286;2023-06-04T03:38:58;8.43;;;3.55;;
52854;SDS011;38719;51.418;7.286;2023-06-04T03:41:25;5.90;;;3.40;;
52854;SDS011;38719;51.418;7.286;2023-06-04T03:43:53;6.47;;;3.70;;
52854;SDS011;38719;51.418;7.286;2023-06-04T03:46:20;4.85;;;3.67;;
52854;SDS011;38719;51.418;7.286;2023-06-04T03:48:48;4.30;;;3.58;;
52854;SDS011;38719;51.418;7.286;2023-06-04T03:51:20;4.88;;;3.25;;
52854;SDS011;38719;51.418;7.286;2023-06-04T03:53:52;4.38;;;3.55;;
52854;SDS011;38719;51.418;7.286;2023-06-04T03:56:21;9.57;;;5.75;;
52854;SDS011;38719;51.418;7.286;2023-06-04T03:58:49;7.68;;;4.68;;
52854;SDS011;38719;51.418;7.286;2023-06-04T04:01:17;6.30;;;4.05;;
52854;SDS011;38719;51.418;7.286;2023-06-04T04:03:45;6.40;;;4.05;;
52854;SDS011;38719;51.418;7.286;2023-06-04T04:06:14;6.38;;;3.88;;
52854;SDS011;38719;51.418;7.286;2023-06-04T04:08:43;6.60;;;4.47;;
52854;SDS011;38719;51.418;7.286;2023-06-04T04:11:13;10.30;;;3.88;;
52854;SDS011;38719;51.418;7.286;2023-06-04T04:13:42;6.32;;;3.42;;
52854;SDS011;38719;51.418;7.286;2023-06-04T04:16:11;5.10;;;3.90;;
52854;SDS011;38719;51.418;7.286;2023-06-04T04:18:41;8.25;;;3.80;;
52854;SDS011;38719;51.418;7.286;2023-06-04T04:21:10;5.55;;;3.38;;
52854;SDS011;38719;51.418;7.286;2023-06-04T04:23:37;4.28;;;3.40;;
52854;SDS011;38719;51.418;7.286;2023-06-04T04:26:06;5.93;;;3.65;;
52854;SDS011;38719;51.418;7.286;2023-06-04T04:28:37;5.93;;;3.80;;
52854;SDS011;38719;51.418;7.286;2023-06-04T04:31:04;4.15;;;3.58;;
52854;SDS011;38719;51.418;7.286;2023-06-04T04:33:33;5.30;;;3.72;;
52854;SDS011;38719;51.418;7.286;2023-06-04T04:36:05;5.10;;;3.75;;
52854;SDS011;38719;51.418;7.286;2023-06-04T04:38:34;5.47;;;3.90;;
52854;SDS011;38719;51.418;7.286;2023-06-04T04:41:04;7.55;;;3.70;;
52854;SDS011;38719;51.418;7.286;2023-06-04T04:43:34;5.47;;;3.75;;
52854;SDS011;38719;51.418;7.286;2023-06-04T04:46:05;5.50;;;3.50;;
52854;SDS011;38719;51.418;7.286;2023-06-04T04:48:32;6.45;;;3.95;;
52854;SDS011;38719;51.418;7.286;2023-06-04T04:51:00;7.97;;;4.78;;
52854;SDS011;38719;51.418;7.286;2023-06-04T04:53:28;5.57;;;4.18;;
52854;SDS011;38719;51.418;7.286;2023-06-04T04:55:55;6.13;;;4.10;;
52854;SDS011;38719;51.418;7.286;2023-06-04T04:58:22;8.50;;;3.85;;
52854;SDS011;38719;51.418;7.286;2023-06-04T05:00:50;6.85;;;3.97;;
52854;SDS011;38719;51.418;7.286;2023-06-04T05:03:19;5.53;;;3.60;;
52854;SDS011;38719;51.418;7.286;2023-06-04T05:05:46;6.10;;;3.60;;
52854;SDS011;38719;51.418;7.286;2023-06-04T05:08:14;7.75;;;4.00;;
52854;SDS011;38719;51.418;7.286;2023-06-04T05:10:41;11.13;;;4.60;;
52854;SDS011;38719;51.418;7.286;2023-06-04T05:13:09;10.25;;;4.38;;
52854;SDS011;38719;51.418;7.286;2023-06-04T05:15:37;14.10;;;3.97;;
52854;SDS011;38719;51.418;7.286;2023-06-04T05:18:06;9.27;;;4.50;;
52854;SDS011;38719;51.418;7.286;2023-06-04T05:20:35;7.78;;;4.13;;
52854;SDS011;38719;51.418;7.286;2023-06-04T05:23:03;8.00;;;4.35;;
52854;SDS011;38719;51.418;7.286;2023-06-04T05:25:31;13.10;;;4.82;;
52854;SDS011;38719;51.418;7.286;2023-06-04T05:27:58;5.57;;;3.83;;
52854;SDS011;38719;51.418;7.286;2023-06-04T05:30:26;8.70;;;4.20;;
52854;SDS011;38719;51.418;7.286;2023-06-04T05:32:54;7.38;;;3.72;;
52854;SDS011;38719;51.418;7.286;2023-06-04T05:35:21;6.50;;;3.97;;
52854;SDS011;38719;51.418;7.286;2023-06-04T05:37:50;6.68;;;4.00;;
52854;SDS011;38719;51.418;7.286;2023-06-04T05:40:20;6.38;;;4.00;;
52854;SDS011;38719;51.418;7.286;2023-06-04T05:42:49;4.68;;;3.80;;
52854;SDS011;38719;51.418;7.286;2023-06-04T05:45:16;8.30;;;3.70;;
52854;SDS011;38719;51.418;7.286;2023-06-04T05:47:44;5.68;;;3.63;;
52854;SDS011;38719;51.418;7.286;2023-06-04T05:50:12;6.28;;;3.85;;
52854;SDS011;38719;51.418;7.286;2023-06-04T05:52:39;9.20;;;4.22;;
52854;SDS011;38719;51.418;7.286;2023-06-04T05:55:09;13.77;;;5.20;;
52854;SDS011;38719;51.418;7.286;2023-06-04T05:57:36;14.48;;;4.90;;
52854;SDS011;38719;51.418;7.286;2023-06-04T06:00:05;8.93;;;5.15;;
52854;SDS011;38719;51.418;7.286;2023-06-04T06:02:37;8.10;;;4.18;;
52854;SDS011;38719;51.418;7.286;2023-06-04T06:05:05;7.03;;;4.00;;
52854;SDS011;38719;51.418;7.286;2023-06-04T06:07:33;9.05;;;4.00;;
52854;SDS011;38719;51.418;7.286;2023-06-04T06:10:01;6.25;;;4.00;;
52854;SDS011;38719;51.418;7.286;2023-06-04T06:12:30;10.70;;;4.47;;
52854;SDS011;38719;51.418;7.286;2023-06-04T06:14:57;7.85;;;4.13;;
52854;SDS011;38719;51.418;7.286;2023-06-04T06:17:25;10.27;;;4.65;;
52854;SDS011;38719;51.418;7.286;2023-06-04T06:19:53;9.85;;;4.20;;
52854;SDS011;38719;51.418;7.286;2023-06-04T06:22:20;11.35;;;4.20;;
52854;SDS011;38719;51.418;7.286;2023-06-04T06:24:48;11.88;;;4.72;;
52854;SDS011;38719;51.418;7.286;2023-06-04T06:27:15;16.63;;;4.93;;
52854;SDS011;38719;51.418;7.286;2023-06-04T06:29:45;10.05;;;5.13;;
52854;SDS011;38719;51.418;7.286;2023-06-04T06:32:12;11.13;;;4.90;;
52854;SDS011;38719;51.418;7.286;2023-06-04T06:34:40;9.70;;;5.35;;
52854;SDS011;38719;51.418;7.286;2023-06-04T06:37:07;11.18;;;4.55;;
52854;SDS011;38719;51.418;7.286;2023-06-04T06:39:35;7.65;;;3.63;;
52854;SDS011;38719;51.418;7.286;2023-06-04T06:42:02;6.72;;;4.00;;
52854;SDS011;38719;51.418;7.286;2023-06-04T06:44:30;13.10;;;4.28;;
52854;SDS011;38719;51.418;7.286;2023-06-04T06:46:59;9.00;;;4.00;;
52854;SDS011;38719;51.418;7.286;2023-06-04T06:49:27;13.43;;;4.32;;
52854;SDS011;38719;51.418;7.286;2023-06-04T06:51:54;5.07;;;3.78;;
52854;SDS011;38719;51.418;7.286;2023-06-04T06:54:22;5.88;;;3.67;;
52854;SDS011;38719;51.418;7.286;2023-06-04T06:56:49;9.10;;;3.47;;
52854;SDS011;38719;51.418;7.286;2023-06-04T06:59:17;5.90;;;3.38;;
52854;SDS011;38719;51.418;7.286;2023-06-04T07:01:44;7.95;;;3.50;;
52854;SDS011;38719;51.418;7.286;2023-06-04T07:04:14;5.85;;;3.30;;
52854;SDS011;38719;51.418;7.286;2023-06-04T07:06:42;4.47;;;3.30;;
52854;SDS011;38719;51.418;7.286;2023-06-04T07:09:10;8.13;;;3.70;;
52854;SDS011;38719;51.418;7.286;2023-06-04T07:11:37;5.80;;;3.95;;
52854;SDS011;38719;51.418;7.286;2023-06-04T07:14:05;7.47;;;4.22;;
52854;SDS011;38719;51.418;7.286;2023-06-04T07:16:32;6.43;;;4.25;;
52854;SDS011;38719;51.418;7.286;2023-06-04T07:19:00;7.97;;;4.22;;
52854;SDS011;38719;51.418;7.286;2023-06-04T07:21:29;5.00;;;3.45;;
52854;SDS011;38719;51.418;7.286;2023-06-04T07:23:57;10.18;;;3.90;;
52854;SDS011;38719;51.418;7.286;2023-06-04T07:26:24;5.32;;;3.63;;
52854;SDS011;38719;51.418;7.286;2023-06-04T07:28:52;5.55;;;3.25;;
52854;SDS011;38719;51.418;7.286;2023-06-04T07:31:20;8.02;;;3.90;;
52854;SDS011;38719;51.418;7.286;2023-06-04T07:33:47;5.68;;;3.75;;
52854;SDS011;38719;51.418;7.286;2023-06-04T07:36:15;6.25;;;3.25;;
52854;SDS011;38719;51.418;7.286;2023-06-04T07:38:44;4.78;;;3.38;;
52854;SDS011;38719;51.418;7.286;2023-06-04T07:41:12;8.10;;;3.33;;
52854;SDS011;38719;51.418;7.286;2023-06-04T07:43:39;4.90;;;3.20;;
52854;SDS011;38719;51.418;7.286;2023-06-04T07:46:07;6.85;;;3.22;;
52854;SDS011;38719;51.418;7.286;2023-06-04T07:48:35;5.70;;;3.22;;
52854;SDS011;38719;51.418;7.286;2023-06-04T07:51:03;7.55;;;3.25;;
52854;SDS011;38719;51.418;7.286;2023-06-04T07:53:31;7.60;;;3.58;;
52854;SDS011;38719;51.418;7.286;2023-06-04T07:56:00;4.60;;;3.13;;
52854;SDS011;38719;51.418;7.286;2023-06-04T07:58:27;4.57;;;2.90;;
52854;SDS011;38719;51.418;7.286;2023-06-04T08:00:55;8.65;;;3.75;;
52854;SDS011;38719;51.418;7.286;2023-06-04T08:03:22;7.03;;;3.42;;
52854;SDS011;38719;51.418;7.286;2023-06-04T08:05:51;8.77;;;3.72;;
52854;SDS011;38719;51.418;7.286;2023-06-04T08:08:18;7.18;;;3.65;;
52854;SDS011;38719;51.418;7.286;2023-06-04T08:10:46;7.43;;;3.50;;
52854;SDS011;38719;51.418;7.286;2023-06-04T08:13:14;6.50;;;3.78;;
52854;SDS011;38719;51.418;7.286;2023-06-04T08:15:42;7.03;;;3.92;;
52854;SDS011;38719;51.418;7.286;2023-06-04T08:18:10;6.53;;;4.00;;
52854;SDS011;38719;51.418;7.286;2023-06-04T08:20:37;7.70;;;4.32;;
52854;SDS011;38719;51.418;7.286;2023-06-04T08:23:05;5.13;;;3.50;;
52854;SDS011;38719;51.418;7.286;2023-06-04T08:25:32;9.25;;;3.78;;
52854;SDS011;38719;51.418;7.286;2023-06-04T08:28:00;3.97;;;3.33;;
52854;SDS011;38719;51.418;7.286;2023-06-04T08:30:29;5.47;;;3.80;;
52854;SDS011;38719;51.418;7.286;2023-06-04T08:32:56;13.23;;;3.63;;
52854;SDS011;38719;51.418;7.286;2023-06-04T08:35:24;5.63;;;3.30;;
52854;SDS011;38719;51.418;7.286;2023-06-04T08:37:51;5.43;;;3.38;;
52854;SDS011;38719;51.418;7.286;2023-06-04T08:40:19;7.20;;;3.65;;
52854;SDS011;38719;51.418;7.286;2023-06-04T08:42:48;10.88;;;3.50;;
52854;SDS011;38719;51.418;7.286;2023-06-04T08:45:17;4.47;;;3.22;;
52854;SDS011;38719;51.418;7.286;2023-06-04T08:47:49;5.80;;;3.20;;
52854;SDS011;38719;51.418;7.286;2023-06-04T08:50:22;8.25;;;3.97;;
52854;SDS011;38719;51.418;7.286;2023-06-04T08:52:51;6.32;;;4.13;;
52854;SDS011;38719;51.418;7.286;2023-06-04T08:55:21;3.75;;;3.42;;
52854;SDS011;38719;51.418;7.286;2023-06-04T08:57:49;4.13;;;3.38;;
52854;SDS011;38719;51.418;7.286;2023-06-04T09:00:17;6.65;;;3.50;;
52854;SDS011;38719;51.418;7.286;2023-06-04T09:02:46;14.15;;;3.85;;
52854;SDS011;38719;51.418;7.286;2023-06-04T09:05:19;7.20;;;3.90;;
52854;SDS011;38719;51.418;7.286;2023-06-04T09:07:48;8.02;;;3.97;;
52854;SDS011;38719;51.418;7.286;2023-06-04T09:10:20;12.68;;;4.20;;
52854;SDS011;38719;51.418;7.286;2023-06-04T09:12:51;12.82;;;4.20;;
52854;SDS011;38719;51.418;7.286;2023-06-04T09:15:19;10.57;;;4.20;;
52854;SDS011;38719;51.418;7.286;2023-06-04T09:17:47;6.43;;;3.75;;
52854;SDS011;38719;51.418;7.286;2023-06-04T09:20:22;9.43;;;4.93;;
52854;SDS011;38719;51.418;7.286;2023-06-04T09:22:50;6.63;;;4.30;;
52854;SDS011;38719;51.418;7.286;2023-06-04T09:25:21;8.05;;;4.10;;
52854;SDS011;38719;51.418;7.286;2023-06-04T09:27:51;7.55;;;4.20;;
52854;SDS011;38719;51.418;7.286;2023-06-04T09:30:19;9.43;;;4.10;;
52854;SDS011;38719;51.418;7.286;2023-06-04T09:32:47;10.82;;;4.13;;
52854;SDS011;38719;51.418;7.286;2023-06-04T09:35:15;7.45;;;4.30;;
52854;SDS011;38719;51.418;7.286;2023-06-04T09:37:52;5.18;;;3.90;;
52854;SDS011;38719;51.418;7.286;2023-06-04T09:40:21;6.70;;;4.07;;
52854;SDS011;38719;51.418;7.286;2023-06-04T09:42:49;5.78;;;3.83;;
52854;SDS011;38719;51.418;7.286;2023-06-04T09:45:27;5.95;;;3.83;;
52854;SDS011;38719;51.418;7.286;2023-06-04T09:47:55;6.57;;;3.95;;
52854;SDS011;38719;51.418;7.286;2023-06-04T09:50:24;6.10;;;3.90;;
52854;SDS011;38719;51.418;7.286;2023-06-04T09:52:54;3.88;;;3.22;;
52854;SDS011;38719;51.418;7.286;2023-06-04T09:55:22;5.93;;;3.35;;
52854;SDS011;38719;51.418;7.286;2023-06-04T09:57:50;6.25;;;3.22;;
52854;SDS011;38719;51.418;7.286;2023-06-04T10:00:20;7.07;;;3.25;;
52854;SDS011;38719;51.418;7.286;2023-06-04T10:02:49;23.90;;;4.10;;
52854;SDS011;38719;51.418;7.286;2023-06-04T10:05:23;5.50;;;2.72;;
52854;SDS011;38719;51.418;7.286;2023-06-04T10:07:52;3.33;;;2.50;;
52854;SDS011;38719;51.418;7.286;2023-06-04T10:10:25;4.65;;;3.10;;
52854;SDS011;38719;51.418;7.286;2023-06-04T10:12:54;14.90;;;2.92;;
52854;SDS011;38719;51.418;7.286;2023-06-04T10:15:27;4.55;;;2.70;;
52854;SDS011;38719;51.418;7.286;2023-06-04T10:17:58;8.00;;;3.22;;
52854;SDS011;38719;51.418;7.286;2023-06-04T10:20:26;8.02;;;3.10;;
52854;SDS011;38719;51.418;7.286;2023-06-04T10:22:56;9.25;;;3.58;;
52854;SDS011;38719;51.418;7.286;2023-06-04T10:25:24;3.80;;;2.65;;
52854;SDS011;38719;51.418;7.286;2023-06-04T10:27:53;8.65;;;2.63;;
52854;SDS011;38719;51.418;7.286;2023-06-04T10:30:21;4.85;;;3.10;;
52854;SDS011;38719;51.418;7.286;2023-06-04T10:32:49;7.18;;;2.90;;
52854;SDS011;38719;51.418;7.286;2023-06-04T10:35:17;5.53;;;3.10;;
52854;SDS011;38719;51.418;7.286;2023-06-04T10:37:45;5.85;;;2.83;;
52854;SDS011;38719;51.418;7.286;2023-06-04T10:40:15;11.90;;;2.97;;
52854;SDS011;38719;51.418;7.286;2023-06-04T10:42:43;3.70;;;2.83;;
52854;SDS011;38719;51.418;7.286;2023-06-04T10:45:10;10.98;;;3.67;;
52854;SDS011;38719;51.418;7.286;2023-06-04T10:47:38;10.40;;;2.95;;
52854;SDS011;38719;51.418;7.286;2023-06-04T10:50:07;9.48;;;3.20;;
52854;SDS011;38719;51.418;7.286;2023-06-04T10:52:36;6.53;;;3.10;;
52854;SDS011;38719;51.418;7.286;2023-06-04T10:55:06;6.47;;;3.30;;
52854;SDS011;38719;51.418;7.286;2023-06-04T10:57:36;32.88;;;4.55;;
52854;SDS011;38719;51.418;7.286;2023-06-04T11:00:04;30.27;;;4.60;;
52854;SDS011;38719;51.418;7.286;2023-06-04T11:02:36;4.00;;;2.70;;
52854;SDS011;38719;51.418;7.286;2023-06-04T11:05:05;9.07;;;3.33;;
52854;SDS011;38719;51.418;7.286;2023-06-04T11:07:41;10.63;;;3.10;;
52854;SDS011;38719;51.418;7.286;2023-06-04T11:10:11;5.50;;;3.20;;
52854;SDS011;38719;51.418;7.286;2023-06-04T11:12:44;13.98;;;3.50;;
52854;SDS011;38719;51.418;7.286;2023-06-04T11:15:12;6.38;;;3.05;;
52854;SDS011;38719;51.418;7.286;2023-06-04T11:17:50;17.48;;;3.72;;
52854;SDS011;38719;51.418;7.286;2023-06-04T11:20:18;4.45;;;2.90;;
52854;SDS011;38719;51.418;7.286;2023-06-04T11:22:50;5.22;;;3.22;;
52854;SDS011;38719;51.418;7.286;2023-06-04T11:25:18;5.43;;;2.95;;
52854;SDS011;38719;51.418;7.286;2023-06-04T11:27:51;6.68;;;2.95;;
52854;SDS011;38719;51.418;7.286;2023-06-04T11:30:19;4.40;;;3.03;;
52854;SDS011;38719;51.418;7.286;2023-06-04T11:32:47;4.03;;;2.70;;
52854;SDS011;38719;51.418;7.286;2023-06-04T11:35:14;10.90;;;3.20;;
52854;SDS011;38719;51.418;7.286;2023-06-04T11:37:52;4.15;;;2.67;;
52854;SDS011;38719;51.418;7.286;2023-06-04T11:40:21;4.32;;;2.85;;
52854;SDS011;38719;51.418;7.286;2023-06-04T11:42:50;5.47;;;2.70;;
52854;SDS011;38719;51.418;7.286;2023-06-04T11:45:18;3.78;;;2.40;;
52854;SDS011;38719;51.418;7.286;2023-06-04T11:47:46;4.93;;;2.70;;
52854;SDS011;38719;51.418;7.286;2023-06-04T11:50:14;3.35;;;2.38;;
52854;SDS011;38719;51.418;7.286;2023-06-04T11:52:42;5.25;;;2.67;;
52854;SDS011;38719;51.418;7.286;2023-06-04T11:55:10;4.00;;;2.50;;
52854;SDS011;38719;51.418;7.286;2023-06-04T11:57:39;4.38;;;2.55;;
52854;SDS011;38719;51.418;7.286;2023-06-04T12:00:09;3.50;;;2.70;;
52854;SDS011;38719;51.418;7.286;2023-06-04T12:02:37;9.05;;;2.47;;
52854;SDS011;38719;51.418;7.286;2023-06-04T12:05:12;4.15;;;2.45;;
52854;SDS011;38719;51.418;7.286;2023-06-04T12:10:07;6.00;;;2.72;;
52854;SDS011;38719;51.418;7.286;2023-06-04T12:12:37;2.85;;;2.50;;
52854;SDS011;38719;51.418;7.286;2023-06-04T12:15:06;7.60;;;2.55;;
52854;SDS011;38719;51.418;7.286;2023-06-04T12:17:36;4.68;;;2.53;;
52854;SDS011;38719;51.418;7.286;2023-06-04T12:20:05;3.83;;;2.65;;
52854;SDS011;38719;51.418;7.286;2023-06-04T12:22:35;3.08;;;2.20;;
52854;SDS011;38719;51.418;7.286;2023-06-04T12:25:11;4.97;;;2.40;;
52854;SDS011;38719;51.418;7.286;2023-06-04T12:27:46;2.92;;;2.50;;
52854;SDS011;38719;51.418;7.286;2023-06-04T12:30:15;4.53;;;2.50;;
52854;SDS011;38719;51.418;7.286;2023-06-04T12:32:43;4.85;;;2.60;;
52854;SDS011;38719;51.418;7.286;2023-06-04T12:35:11;5.90;;;2.67;;
52854;SDS011;38719;51.418;7.286;2023-06-04T12:37:39;4.00;;;2.28;;
52854;SDS011;38719;51.418;7.286;2023-06-04T12:40:07;3.13;;;2.50;;
52854;SDS011;38719;51.418;7.286;2023-06-04T12:42:35;5.47;;;2.42;;
52854;SDS011;38719;51.418;7.286;2023-06-04T12:45:03;7.28;;;2.60;;
52854;SDS011;38719;51.418;7.286;2023-06-04T12:47:32;3.58;;;2.28;;
52854;SDS011;38719;51.418;7.286;2023-06-04T12:49:59;2.80;;;2.28;;
52854;SDS011;38719;51.418;7.286;2023-06-04T12:52:27;6.30;;;2.35;;
52854;SDS011;38719;51.418;7.286;2023-06-04T12:54:55;3.80;;;2.33;;
52854;SDS011;38719;51.418;7.286;2023-06-04T12:57:23;3.38;;;2.38;;
52854;SDS011;38719;51.418;7.286;2023-06-04T12:59:50;6.72;;;2.50;;
52854;SDS011;38719;51.418;7.286;2023-06-04T13:02:18;3.53;;;2.22;;
52854;SDS011;38719;51.418;7.286;2023-06-04T13:04:47;6.70;;;2.30;;
52854;SDS011;38719;51.418;7.286;2023-06-04T13:07:19;2.77;;;2.17;;
52854;SDS011;38719;51.418;7.286;2023-06-04T13:09:47;5.22;;;2.30;;
52854;SDS011;38719;51.418;7.286;2023-06-04T13:12:14;4.60;;;2.45;;
52854;SDS011;38719;51.418;7.286;2023-06-04T13:14:42;3.63;;;2.22;;
52854;SDS011;38719;51.418;7.286;2023-06-04T13:17:10;4.72;;;2.60;;
52854;SDS011;38719;51.418;7.286;2023-06-04T13:19:49;5.47;;;2.40;;
52854;SDS011;38719;51.418;7.286;2023-06-04T13:22:18;8.35;;;2.10;;
52854;SDS011;38719;51.418;7.286;2023-06-04T13:24:45;3.80;;;2.75;;
52854;SDS011;38719;51.418;7.286;2023-06-04T13:27:13;6.85;;;2.78;;
52854;SDS011;38719;51.418;7.286;2023-06-04T13:29:40;4.57;;;2.38;;
52854;SDS011;38719;51.418;7.286;2023-06-04T13:32:10;3.25;;;2.33;;
52854;SDS011;38719;51.418;7.286;2023-06-04T13:34:37;4.85;;;2.28;;
52854;SDS011;38719;51.418;7.286;2023-06-04T13:37:06;5.20;;;2.63;;
52854;SDS011;38719;51.418;7.286;2023-06-04T13:39:37;5.35;;;2.53;;
52854;SDS011;38719;51.418;7.286;2023-06-04T13:42:05;7.35;;;2.35;;
52854;SDS011;38719;51.418;7.286;2023-06-04T13:44:33;7.97;;;2.55;;
52854;SDS011;38719;51.418;7.286;2023-06-04T13:47:00;3.55;;;2.03;;
52854;SDS011;38719;51.418;7.286;2023-06-04T13:49:31;3.67;;;2.20;;
52854;SDS011;38719;51.418;7.286;2023-06-04T13:51:59;6.05;;;2.30;;
52854;SDS011;38719;51.418;7.286;2023-06-04T13:54:28;2.97;;;2.33;;
52854;SDS011;38719;51.418;7.286;2023-06-04T13:56:57;3.88;;;2.40;;
52854;SDS011;38719;51.418;7.286;2023-06-04T13:59:28;5.75;;;2.13;;
52854;SDS011;38719;51.418;7.286;2023-06-04T14:01:56;3.28;;;2.10;;
52854;SDS011;38719;51.418;7.286;2023-06-04T14:04:23;6.20;;;2.10;;
52854;SDS011;38719;51.418;7.286;2023-06-04T14:06:51;4.15;;;2.30;;
52854;SDS011;38719;51.418;7.286;2023-06-04T14:09:18;3.85;;;2.20;;
52854;SDS011;38719;51.418;7.286;2023-06-04T14:11:47;3.42;;;2.17;;
52854;SDS011;38719;51.418;7.286;2023-06-04T14:14:16;4.38;;;2.20;;
52854;SDS011;38719;51.418;7.286;2023-06-04T14:16:44;7.82;;;2.20;;
52854;SDS011;38719;51.418;7.286;2023-06-04T14:19:12;2.90;;;2.15;;
52854;SDS011;38719;51.418;7.286;2023-06-04T14:21:40;5.60;;;2.20;;
52854;SDS011;38719;51.418;7.286;2023-06-04T14:24:07;4.40;;;2.25;;
52854;SDS011;38719;51.418;7.286;2023-06-04T14:26:35;2.28;;;2.08;;
52854;SDS011;38719;51.418;7.286;2023-06-04T14:29:05;4.53;;;2.25;;
52854;SDS011;38719;51.418;7.286;2023-06-04T14:31:32;6.47;;;2.83;;
52854;SDS011;38719;51.418;7.286;2023-06-04T14:34:00;8.38;;;3.08;;
52854;SDS011;38719;51.418;7.286;2023-06-04T14:36:27;2.70;;;2.13;;
52854;SDS011;38719;51.418;7.286;2023-06-04T14:38:56;4.25;;;2.20;;
52854;SDS011;38719;51.418;7.286;2023-06-04T14:41:23;3.00;;;2.20;;
52854;SDS011;38719;51.418;7.286;2023-06-04T14:43:51;2.20;;;2.00;;
52854;SDS011;38719;51.418;7.286;2023-06-04T14:46:19;1.92;;;1.70;;
52854;SDS011;38719;51.418;7.286;2023-06-04T14:48:47;3.88;;;2.25;;
52854;SDS011;38719;51.418;7.286;2023-06-04T14:51:14;6.45;;;2.67;;
52854;SDS011;38719;51.418;7.286;2023-06-04T14:53:42;2.92;;;2.45;;
52854;SDS011;38719;51.418;7.286;2023-06-04T14:56:09;6.32;;;2.90;;
52854;SDS011;38719;51.418;7.286;2023-06-04T14:58:37;4.05;;;2.67;;